createdAt,value
2022-12-25T00:00:35.702Z,84.59
2022-12-25T00:01:37.484Z,84.59
2022-12-25T00:02:39.632Z,84.59
2022-12-25T00:03:41.435Z,84.68
2022-12-25T00:04:43.142Z,84.78
2022-12-25T00:05:44.772Z,84.89
2022-12-25T00:06:46.429Z,84.77
2022-12-25T00:07:48.032Z,84.97
2022-12-25T00:08:49.707Z,84.86
2022-12-25T00:09:51.358Z,85.06
2022-12-25T00:11:06.086Z,84.86
2022-12-25T00:12:07.680Z,84.99
2022-12-25T00:13:09.286Z,84.98
2022-12-25T00:14:10.939Z,85.18
2022-12-25T00:15:12.568Z,85.36
2022-12-25T00:16:17.011Z,85.54
2022-12-25T00:17:18.640Z,85.65
2022-12-25T00:18:20.359Z,85.61
2022-12-25T00:19:22.033Z,85.70
2022-12-25T00:20:23.660Z,85.94
2022-12-25T00:21:25.250Z,86.02
2022-12-25T00:22:26.906Z,85.96
2022-12-25T00:23:28.587Z,86.14
2022-12-25T00:24:30.287Z,86.44
2022-12-25T00:25:31.907Z,86.76
2022-12-25T00:26:33.507Z,86.68
2022-12-25T00:27:37.840Z,86.68
2022-12-25T00:28:39.597Z,86.41
2022-12-25T00:29:41.211Z,86.68
2022-12-25T00:30:42.845Z,86.80
2022-12-25T00:31:44.585Z,86.84
2022-12-25T00:32:46.302Z,86.62
2022-12-25T00:33:48.402Z,86.51
2022-12-25T00:34:50.098Z,86.63
2022-12-25T00:36:00.973Z,87.10
2022-12-25T00:37:02.576Z,87.02
2022-12-25T00:38:04.199Z,87.05
2022-12-25T00:39:07.077Z,87.04
2022-12-25T00:40:09.439Z,86.52
2022-12-25T00:41:12.801Z,87.25
2022-12-25T00:42:20.413Z,86.97
2022-12-25T00:43:22.587Z,86.83
2022-12-25T00:44:24.310Z,87.08
2022-12-25T00:45:25.943Z,87.02
2022-12-25T00:46:27.655Z,87.03
2022-12-25T00:47:29.582Z,87.28
2022-12-25T00:48:31.456Z,87.34
2022-12-25T00:49:33.152Z,87.72
2022-12-25T00:50:34.889Z,87.77
2022-12-25T00:51:36.593Z,87.63
2022-12-25T00:52:38.201Z,87.40
2022-12-25T00:53:39.806Z,87.33
2022-12-25T00:54:41.472Z,87.30
2022-12-25T00:55:43.064Z,87.34
2022-12-25T00:56:44.931Z,87.35
2022-12-25T00:57:46.600Z,87.46
2022-12-25T00:58:48.245Z,87.42
2022-12-25T00:59:49.854Z,87.44
2022-12-25T01:00:51.619Z,87.32
2022-12-25T01:01:53.372Z,87.29
2022-12-25T01:02:55.276Z,87.37
2022-12-25T01:03:56.903Z,87.52
2022-12-25T01:04:58.536Z,87.60
2022-12-25T01:06:01.958Z,87.80
2022-12-25T01:07:03.572Z,87.86
2022-12-25T01:08:05.403Z,88.43
2022-12-25T01:09:25.759Z,89.23
2022-12-25T01:10:27.378Z,89.54
2022-12-25T01:11:29.114Z,89.44
2022-12-25T01:12:31.650Z,89.18
2022-12-25T01:13:35.045Z,88.53
2022-12-25T01:14:36.711Z,89.30
2022-12-25T01:15:38.369Z,89.28
2022-12-25T01:16:40.225Z,89.33
2022-12-25T01:17:42.506Z,88.27
2022-12-25T01:18:44.391Z,88.84
2022-12-25T01:19:46.036Z,89.05
2022-12-25T01:20:47.758Z,89.03
2022-12-25T01:21:49.382Z,88.79
2022-12-25T01:22:50.955Z,88.46
2022-12-25T01:23:52.943Z,88.16
2022-12-25T01:24:54.588Z,88.10
2022-12-25T01:25:56.167Z,88.65
2022-12-25T01:26:57.750Z,89.19
2022-12-25T01:27:59.356Z,88.92
2022-12-25T01:29:02.611Z,88.90
2022-12-25T01:30:05.111Z,88.38
2022-12-25T01:31:09.754Z,88.49
2022-12-25T01:32:11.453Z,88.36
2022-12-25T01:33:13.080Z,88.37
2022-12-25T01:34:14.776Z,88.41
2022-12-25T01:35:16.491Z,88.86
2022-12-25T01:36:20.004Z,88.65
2022-12-25T01:37:21.597Z,88.46
2022-12-25T01:38:23.245Z,88.56
2022-12-25T01:39:24.995Z,88.61
2022-12-25T01:40:26.617Z,88.81
2022-12-25T01:41:28.255Z,88.59
2022-12-25T01:42:29.856Z,88.50
2022-12-25T01:43:32.457Z,88.50
2022-12-25T01:44:36.843Z,88.46
2022-12-25T01:45:42.531Z,88.27
2022-12-25T01:46:44.224Z,88.15
2022-12-25T01:47:45.826Z,88.02
2022-12-25T01:48:47.482Z,87.86
2022-12-25T01:49:49.905Z,87.59
2022-12-25T01:50:56.649Z,87.63
2022-12-25T01:52:18.881Z,87.65
2022-12-25T01:53:25.004Z,87.27
2022-12-25T01:54:28.944Z,87.23
2022-12-25T01:55:30.595Z,87.35
2022-12-25T01:56:32.227Z,87.14
2022-12-25T01:57:34.847Z,87.13
2022-12-25T01:58:36.437Z,87.44
2022-12-25T01:59:38.094Z,87.32
2022-12-25T02:00:39.776Z,87.70
2022-12-25T02:01:41.572Z,87.74
2022-12-25T02:02:43.421Z,87.99
2022-12-25T02:03:45.064Z,87.85
2022-12-25T02:04:57.663Z,88.01
2022-12-25T02:05:59.474Z,88.04
2022-12-25T02:07:01.126Z,88.47
2022-12-25T02:08:07.356Z,88.66
2022-12-25T02:09:09.043Z,88.75
2022-12-25T02:10:11.149Z,88.92
2022-12-25T02:11:32.720Z,88.76
2022-12-25T02:12:34.427Z,88.47
2022-12-25T02:13:36.074Z,88.28
2022-12-25T02:14:37.714Z,88.26
2022-12-25T02:15:45.547Z,88.05
2022-12-25T02:16:58.330Z,88.78
2022-12-25T02:18:11.990Z,89.43
2022-12-25T02:19:28.938Z,89.51
2022-12-25T02:20:58.302Z,89.31
2022-12-25T02:22:38.138Z,88.32
2022-12-25T02:24:10.004Z,87.87
2022-12-25T02:25:17.400Z,87.73
2022-12-25T02:26:22.063Z,87.73
2022-12-25T02:27:57.380Z,87.77
2022-12-25T02:29:23.055Z,87.83
2022-12-25T02:30:24.628Z,87.92
2022-12-25T02:31:30.605Z,88.45
2022-12-25T02:32:41.732Z,88.98
2022-12-25T02:34:04.643Z,88.90
2022-12-25T02:35:08.674Z,88.99
2022-12-25T02:36:11.837Z,88.94
2022-12-25T02:37:16.898Z,88.76
2022-12-25T02:38:36.268Z,88.73
2022-12-25T02:39:56.656Z,88.81
2022-12-25T02:40:59.912Z,89.36
2022-12-25T02:42:02.692Z,89.19
2022-12-25T02:43:25.639Z,88.98
2022-12-25T02:44:45.635Z,88.55
2022-12-25T02:46:11.835Z,88.41
2022-12-25T02:47:32.141Z,88.43
2022-12-25T02:48:54.107Z,88.92
2022-12-25T02:50:14.659Z,89.08
2022-12-25T02:51:35.609Z,89.38
2022-12-25T02:52:55.660Z,89.83
2022-12-25T02:54:16.441Z,89.92
2022-12-25T02:55:41.353Z,89.89
2022-12-25T02:57:02.003Z,89.01
2022-12-25T02:58:24.656Z,88.92
2022-12-25T02:59:45.618Z,89.16
2022-12-25T03:01:07.159Z,89.52
2022-12-25T03:02:27.147Z,89.65
2022-12-25T03:03:49.047Z,89.36
2022-12-25T03:05:09.401Z,89.06
2022-12-25T03:06:29.362Z,89.14
2022-12-25T03:07:31.672Z,89.18
2022-12-25T03:08:40.641Z,89.25
2022-12-25T03:10:04.405Z,89.27
2022-12-25T03:11:27.564Z,89.46
2022-12-25T03:12:47.938Z,89.68
2022-12-25T03:13:51.658Z,89.73
2022-12-25T03:15:11.981Z,89.59
2022-12-25T03:16:32.171Z,89.69
2022-12-25T03:17:33.804Z,88.90
2022-12-25T03:18:35.421Z,89.00
2022-12-25T03:19:55.334Z,89.14
2022-12-25T03:21:15.565Z,89.70
2022-12-25T03:22:47.147Z,90.26
2022-12-25T03:24:09.548Z,89.58
2022-12-25T03:25:29.982Z,89.51
2022-12-25T03:26:52.587Z,89.34
2022-12-25T03:27:55.145Z,89.76
2022-12-25T03:28:56.757Z,89.39
2022-12-25T03:30:16.829Z,89.72
2022-12-25T03:31:37.534Z,90.58
2022-12-25T03:32:51.933Z,90.62
2022-12-25T03:34:17.726Z,90.66
2022-12-25T03:35:25.707Z,90.12
2022-12-25T03:36:32.202Z,89.79
2022-12-25T03:38:33.664Z,89.44
2022-12-25T03:39:58.329Z,89.96
2022-12-25T03:41:47.732Z,89.89
2022-12-25T03:43:12.623Z,90.51
2022-12-25T03:44:58.156Z,90.34
2022-12-25T03:46:21.568Z,89.86
2022-12-25T03:47:35.329Z,90.15
2022-12-25T03:48:55.622Z,89.77
2022-12-25T03:50:28.712Z,91.18
2022-12-25T03:51:49.927Z,90.72
2022-12-25T03:53:10.425Z,90.89
2022-12-25T03:54:30.545Z,91.42
2022-12-25T03:55:50.827Z,91.30
2022-12-25T03:57:10.742Z,90.13
2022-12-25T03:58:37.970Z,90.39
2022-12-25T03:59:58.170Z,90.07
2022-12-25T04:01:18.474Z,90.10
2022-12-25T04:02:38.509Z,90.65
2022-12-25T04:03:58.778Z,90.33
2022-12-25T04:05:18.720Z,90.26
2022-12-25T04:06:38.505Z,90.13
2022-12-25T04:07:58.893Z,89.95
2022-12-25T04:09:19.277Z,90.74
2022-12-25T04:10:39.778Z,91.23
2022-12-25T04:12:02.784Z,90.95
2022-12-25T04:13:23.426Z,91.36
2022-12-25T04:14:43.470Z,90.56
2022-12-25T04:16:03.319Z,90.45
2022-12-25T04:17:39.994Z,90.09
2022-12-25T04:19:00.321Z,91.06
2022-12-25T04:20:20.264Z,90.79
2022-12-25T04:21:40.756Z,90.62
2022-12-25T04:23:00.615Z,90.42
2022-12-25T04:24:20.544Z,90.18
2022-12-25T04:25:40.724Z,89.67
2022-12-25T04:27:00.701Z,90.26
2022-12-25T04:28:22.569Z,90.29
2022-12-25T04:29:42.442Z,90.17
2022-12-25T04:31:02.513Z,90.11
2022-12-25T04:32:22.607Z,90.55
2022-12-25T04:33:42.406Z,90.64
2022-12-25T04:35:02.342Z,90.17
2022-12-25T04:36:10.466Z,90.10
2022-12-25T04:37:12.056Z,90.42
2022-12-25T04:38:13.720Z,90.29
2022-12-25T04:39:15.329Z,90.13
2022-12-25T04:40:16.939Z,90.24
2022-12-25T04:41:18.515Z,90.38
2022-12-25T04:42:20.148Z,90.33
2022-12-25T04:43:25.208Z,90.27
2022-12-25T04:44:27.186Z,90.53
2022-12-25T04:45:28.795Z,90.28
2022-12-25T04:46:30.460Z,90.27
2022-12-25T04:47:33.077Z,90.55
2022-12-25T04:48:35.422Z,90.29
2022-12-25T04:49:37.072Z,90.27
2022-12-25T04:50:38.680Z,90.20
2022-12-25T04:51:40.329Z,90.09
2022-12-25T04:52:42.170Z,90.10
2022-12-25T04:53:44.193Z,90.20
2022-12-25T04:54:45.891Z,90.38
2022-12-25T04:55:47.505Z,90.33
2022-12-25T04:56:49.100Z,90.30
2022-12-25T04:57:50.683Z,90.60
2022-12-25T04:58:52.266Z,90.72
2022-12-25T04:59:53.913Z,90.71
2022-12-25T05:00:58.557Z,91.12
2022-12-25T05:02:00.314Z,91.17
2022-12-25T05:03:02.137Z,90.83
2022-12-25T05:04:04.081Z,90.64
2022-12-25T05:05:06.113Z,90.64
2022-12-25T05:06:07.779Z,90.50
2022-12-25T05:07:09.447Z,90.42
2022-12-25T05:08:11.503Z,90.28
2022-12-25T05:09:13.146Z,90.48
2022-12-25T05:10:14.791Z,90.73
2022-12-25T05:11:16.459Z,90.72
2022-12-25T05:12:18.073Z,90.58
2022-12-25T05:13:19.771Z,90.47
2022-12-25T05:14:21.386Z,90.39
2022-12-25T05:15:23.144Z,90.31
2022-12-25T05:16:25.286Z,90.27
2022-12-25T05:17:27.085Z,90.23
2022-12-25T05:18:28.780Z,90.10
2022-12-25T05:19:30.436Z,90.05
2022-12-25T05:20:36.387Z,90.00
2022-12-25T05:21:41.413Z,89.97
2022-12-25T05:22:43.094Z,89.98
2022-12-25T05:23:50.929Z,89.93
2022-12-25T05:24:52.589Z,89.92
2022-12-25T05:25:54.233Z,90.15
2022-12-25T05:26:55.890Z,90.22
2022-12-25T05:27:57.567Z,90.55
2022-12-25T05:28:59.222Z,90.66
2022-12-25T05:30:00.918Z,90.59
2022-12-25T05:31:02.780Z,90.53
2022-12-25T05:32:04.823Z,90.51
2022-12-25T05:33:06.503Z,90.39
2022-12-25T05:34:08.120Z,90.03
2022-12-25T05:35:09.834Z,89.82
2022-12-25T05:36:11.971Z,89.58
2022-12-25T05:37:13.902Z,90.30
2022-12-25T05:38:15.515Z,90.53
2022-12-25T05:39:17.232Z,90.44
2022-12-25T05:40:18.855Z,90.34
2022-12-25T05:41:20.573Z,90.18
2022-12-25T05:42:22.624Z,89.90
2022-12-25T05:43:24.705Z,89.74
2022-12-25T05:44:26.315Z,89.41
2022-12-25T05:45:27.921Z,89.41
2022-12-25T05:46:29.560Z,89.59
2022-12-25T05:47:31.211Z,89.90
2022-12-25T05:48:34.000Z,90.00
2022-12-25T05:49:35.607Z,89.85
2022-12-25T05:50:37.958Z,89.62
2022-12-25T05:51:39.670Z,89.58
2022-12-25T05:52:41.289Z,89.63
2022-12-25T05:53:43.082Z,89.76
2022-12-25T05:54:44.718Z,89.65
2022-12-25T05:55:46.383Z,89.44
2022-12-25T05:56:48.038Z,89.09
2022-12-25T05:57:49.652Z,88.82
2022-12-25T05:58:51.249Z,89.23
2022-12-25T05:59:52.899Z,89.80
2022-12-25T06:00:54.462Z,89.83
2022-12-25T06:01:56.189Z,89.50
2022-12-25T06:02:58.117Z,88.59
2022-12-25T06:03:59.871Z,88.36
2022-12-25T06:05:01.599Z,88.30
2022-12-25T06:06:03.592Z,88.33
2022-12-25T06:07:05.274Z,88.45
2022-12-25T06:08:06.870Z,88.85
2022-12-25T06:09:09.238Z,89.62
2022-12-25T06:10:10.917Z,90.09
2022-12-25T06:11:13.059Z,90.01
2022-12-25T06:12:14.647Z,89.77
2022-12-25T06:13:16.283Z,89.93
2022-12-25T06:14:17.951Z,90.06
2022-12-25T06:15:19.636Z,90.29
2022-12-25T06:16:21.521Z,90.58
2022-12-25T06:17:25.887Z,90.28
2022-12-25T06:18:27.475Z,90.08
2022-12-25T06:19:29.205Z,90.15
2022-12-25T06:20:30.785Z,90.22
2022-12-25T06:21:32.370Z,90.30
2022-12-25T06:22:34.757Z,90.22
2022-12-25T06:23:37.040Z,90.18
2022-12-25T06:24:38.686Z,90.04
2022-12-25T06:25:40.563Z,90.04
2022-12-25T06:26:42.517Z,90.31
2022-12-25T06:27:44.317Z,90.73
2022-12-25T06:28:46.083Z,90.63
2022-12-25T06:29:47.711Z,90.81
2022-12-25T06:30:49.314Z,90.75
2022-12-25T06:31:54.994Z,89.89
2022-12-25T06:32:56.797Z,89.48
2022-12-25T06:33:58.381Z,89.63
2022-12-25T06:35:00.072Z,89.73
2022-12-25T06:36:09.169Z,90.19
2022-12-25T06:37:10.788Z,89.93
2022-12-25T06:38:12.431Z,89.46
2022-12-25T06:39:14.011Z,89.35
2022-12-25T06:40:16.089Z,89.53
2022-12-25T06:41:22.744Z,89.74
2022-12-25T06:42:24.364Z,89.66
2022-12-25T06:43:26.234Z,89.88
2022-12-25T06:44:27.901Z,89.83
2022-12-25T06:45:29.597Z,89.81
2022-12-25T06:46:31.316Z,89.51
2022-12-25T06:47:33.075Z,89.19
2022-12-25T06:48:34.864Z,88.97
2022-12-25T06:49:36.472Z,88.86
2022-12-25T06:50:43.271Z,88.79
2022-12-25T06:51:44.945Z,88.94
2022-12-25T06:52:46.540Z,89.02
2022-12-25T06:53:48.751Z,89.13
2022-12-25T06:54:50.420Z,89.11
2022-12-25T06:55:52.067Z,89.21
2022-12-25T06:56:53.653Z,89.13
2022-12-25T06:57:55.473Z,89.07
2022-12-25T06:58:58.560Z,88.93
2022-12-25T07:00:00.276Z,88.87
2022-12-25T07:01:15.598Z,88.83
2022-12-25T07:02:20.128Z,89.00
2022-12-25T07:03:21.891Z,88.23
2022-12-25T07:04:38.232Z,88.87
2022-12-25T07:05:39.830Z,89.06
2022-12-25T07:06:41.451Z,88.66
2022-12-25T07:07:43.083Z,88.47
2022-12-25T07:08:44.711Z,88.52
2022-12-25T07:09:46.524Z,88.35
2022-12-25T07:10:48.167Z,88.30
2022-12-25T07:11:49.796Z,88.06
2022-12-25T07:12:51.447Z,87.90
2022-12-25T07:13:54.050Z,87.81
2022-12-25T07:14:55.712Z,87.44
2022-12-25T07:16:00.973Z,87.18
2022-12-25T07:17:02.597Z,87.07
2022-12-25T07:18:04.356Z,87.16
2022-12-25T07:19:06.017Z,87.31
2022-12-25T07:20:08.278Z,87.36
2022-12-25T07:21:12.349Z,87.23
2022-12-25T07:22:14.445Z,87.19
2022-12-25T07:23:16.118Z,87.37
2022-12-25T07:24:19.670Z,87.29
2022-12-25T07:25:21.289Z,87.24
2022-12-25T07:26:22.912Z,87.14
2022-12-25T07:27:24.656Z,87.15
2022-12-25T07:28:26.519Z,87.17
2022-12-25T07:29:28.100Z,87.27
2022-12-25T07:30:29.723Z,87.29
2022-12-25T07:31:31.439Z,87.25
2022-12-25T07:32:33.106Z,87.28
2022-12-25T07:33:34.824Z,87.05
2022-12-25T07:34:36.442Z,86.89
2022-12-25T07:35:38.851Z,86.66
2022-12-25T07:36:40.452Z,86.50
2022-12-25T07:37:42.046Z,86.16
2022-12-25T07:38:43.834Z,85.93
2022-12-25T07:39:45.416Z,85.70
2022-12-25T07:40:47.094Z,85.70
2022-12-25T07:41:48.716Z,85.45
2022-12-25T07:42:50.317Z,85.40
2022-12-25T07:43:52.695Z,85.36
2022-12-25T07:44:54.297Z,85.23
2022-12-25T07:45:57.761Z,85.28
2022-12-25T07:46:59.410Z,85.34
2022-12-25T07:48:05.190Z,85.23
2022-12-25T07:49:07.926Z,84.83
2022-12-25T07:50:09.847Z,84.69
2022-12-25T07:51:12.383Z,84.46
2022-12-25T07:52:14.155Z,84.19
2022-12-25T07:53:15.742Z,84.12
2022-12-25T07:54:17.365Z,84.16
2022-12-25T07:55:18.946Z,84.20
2022-12-25T07:56:20.594Z,84.15
2022-12-25T07:57:22.273Z,84.21
2022-12-25T07:58:24.043Z,84.17
2022-12-25T07:59:25.800Z,84.03
2022-12-25T08:00:31.284Z,83.82
2022-12-25T08:01:33.134Z,83.67
2022-12-25T08:02:35.042Z,83.66
2022-12-25T08:03:37.121Z,83.72
2022-12-25T08:04:38.854Z,83.76
2022-12-25T08:05:40.452Z,83.89
2022-12-25T08:06:42.058Z,83.89
2022-12-25T08:07:43.738Z,83.81
2022-12-25T08:08:45.406Z,84.09
2022-12-25T08:09:47.090Z,84.39
2022-12-25T08:10:48.750Z,84.69
2022-12-25T08:11:50.604Z,84.81
2022-12-25T08:12:53.966Z,84.85
2022-12-25T08:13:56.455Z,84.81
2022-12-25T08:14:58.121Z,84.94
2022-12-25T08:16:00.532Z,85.13
2022-12-25T08:17:02.289Z,85.10
2022-12-25T08:18:03.950Z,84.55
2022-12-25T08:19:05.547Z,84.65
2022-12-25T08:20:07.942Z,84.67
2022-12-25T08:21:11.175Z,84.55
2022-12-25T08:22:12.820Z,84.57
2022-12-25T08:23:14.448Z,84.41
2022-12-25T08:24:16.083Z,84.29
2022-12-25T08:25:17.868Z,84.30
2022-12-25T08:26:21.056Z,84.45
2022-12-25T08:27:22.730Z,84.16
2022-12-25T08:28:24.333Z,83.68
2022-12-25T08:29:25.983Z,83.95
2022-12-25T08:30:28.159Z,84.26
2022-12-25T08:31:30.164Z,84.37
2022-12-25T08:32:33.755Z,84.55
2022-12-25T08:33:35.822Z,84.74
2022-12-25T08:34:40.565Z,85.22
2022-12-25T08:35:42.213Z,85.38
2022-12-25T08:36:43.829Z,85.38
2022-12-25T08:37:45.489Z,85.45
2022-12-25T08:38:47.308Z,85.54
2022-12-25T08:39:49.011Z,85.48
2022-12-25T08:40:50.627Z,85.35
2022-12-25T08:41:52.254Z,85.33
2022-12-25T08:42:56.924Z,85.11
2022-12-25T08:43:58.777Z,84.80
2022-12-25T08:45:00.463Z,84.90
2022-12-25T08:46:02.131Z,85.20
2022-12-25T08:47:03.893Z,85.54
2022-12-25T08:48:05.955Z,85.64
2022-12-25T08:49:07.552Z,85.65
2022-12-25T08:50:09.469Z,85.89
2022-12-25T08:51:16.585Z,86.03
2022-12-25T08:52:18.242Z,86.01
2022-12-25T08:53:19.845Z,85.75
2022-12-25T08:54:21.468Z,85.67
2022-12-25T08:55:23.120Z,85.68
2022-12-25T08:56:24.715Z,85.38
2022-12-25T08:57:26.312Z,85.62
2022-12-25T08:58:28.165Z,85.66
2022-12-25T08:59:29.977Z,85.67
2022-12-25T09:00:31.653Z,85.71
2022-12-25T09:01:33.365Z,85.73
2022-12-25T09:02:35.257Z,85.59
2022-12-25T09:03:37.082Z,85.22
2022-12-25T09:04:38.713Z,85.09
2022-12-25T09:05:40.377Z,85.06
2022-12-25T09:06:42.032Z,84.87
2022-12-25T09:07:43.914Z,84.61
2022-12-25T09:08:49.013Z,84.51
2022-12-25T09:09:51.521Z,84.49
2022-12-25T09:10:53.120Z,84.42
2022-12-25T09:11:54.764Z,84.60
2022-12-25T09:12:56.505Z,84.70
2022-12-25T09:13:58.127Z,84.63
2022-12-25T09:14:59.748Z,84.39
2022-12-25T09:16:05.811Z,84.07
2022-12-25T09:17:08.007Z,83.80
2022-12-25T09:18:10.394Z,83.85
2022-12-25T09:19:11.979Z,83.69
2022-12-25T09:20:13.583Z,83.76
2022-12-25T09:21:15.724Z,83.72
2022-12-25T09:22:17.900Z,83.34
2022-12-25T09:23:19.503Z,82.64
2022-12-25T09:24:21.394Z,82.21
2022-12-25T09:25:23.014Z,82.25
2022-12-25T09:26:24.653Z,82.00
2022-12-25T09:27:27.328Z,81.76
2022-12-25T09:28:29.183Z,81.70
2022-12-25T09:29:30.960Z,81.65
2022-12-25T09:30:32.599Z,81.55
2022-12-25T09:31:34.367Z,81.53
2022-12-25T09:32:36.039Z,81.32
2022-12-25T09:33:38.631Z,81.37
2022-12-25T09:34:40.442Z,81.96
2022-12-25T09:35:42.043Z,81.87
2022-12-25T09:36:43.670Z,81.98
2022-12-25T09:37:45.449Z,81.81
2022-12-25T09:38:47.049Z,81.54
2022-12-25T09:39:49.837Z,81.24
2022-12-25T09:41:05.444Z,80.85
2022-12-25T09:42:19.830Z,80.30
2022-12-25T09:43:21.829Z,79.98
2022-12-25T09:44:26.080Z,79.61
2022-12-25T09:45:37.522Z,79.79
2022-12-25T09:46:45.034Z,79.93
2022-12-25T09:47:47.344Z,79.51
2022-12-25T09:49:03.315Z,79.15
2022-12-25T09:50:08.495Z,79.04
2022-12-25T09:51:10.591Z,78.96
2022-12-25T09:52:39.195Z,79.23
2022-12-25T09:53:44.337Z,79.02
2022-12-25T09:54:48.737Z,78.97
2022-12-25T09:56:02.842Z,78.88
2022-12-25T09:57:04.465Z,79.05
2022-12-25T09:58:11.450Z,79.10
2022-12-25T09:59:20.811Z,79.26
2022-12-25T10:00:27.871Z,79.48
2022-12-25T10:01:42.221Z,79.79
2022-12-25T10:02:49.886Z,80.00
2022-12-25T10:04:15.326Z,79.77
2022-12-25T10:05:36.807Z,79.95
2022-12-25T10:06:50.573Z,79.67
2022-12-25T10:07:58.527Z,79.68
2022-12-25T10:09:16.169Z,78.98
2022-12-25T10:10:44.099Z,78.69
2022-12-25T10:12:19.042Z,78.41
2022-12-25T10:13:31.609Z,78.25
2022-12-25T10:14:53.748Z,78.78
2022-12-25T10:16:07.373Z,78.76
2022-12-25T10:17:34.682Z,78.73
2022-12-25T10:18:57.997Z,78.47
2022-12-25T10:20:08.681Z,78.55
2022-12-25T10:21:13.416Z,78.44
2022-12-25T10:22:20.006Z,78.28
2022-12-25T10:23:32.314Z,78.31
2022-12-25T10:24:43.925Z,78.20
2022-12-25T10:25:45.630Z,78.27
2022-12-25T10:26:47.262Z,78.12
2022-12-25T10:27:57.288Z,78.42
2022-12-25T10:29:01.989Z,78.21
2022-12-25T10:30:13.116Z,78.13
2022-12-25T10:31:22.922Z,77.87
2022-12-25T10:32:24.591Z,77.81
2022-12-25T10:33:26.217Z,77.11
2022-12-25T10:34:28.911Z,77.09
2022-12-25T10:35:31.636Z,76.97
2022-12-25T10:36:33.460Z,76.94
2022-12-25T10:37:35.096Z,76.60
2022-12-25T10:38:36.793Z,76.51
2022-12-25T10:39:42.426Z,76.30
2022-12-25T10:41:06.183Z,75.79
2022-12-25T10:42:20.909Z,76.16
2022-12-25T10:43:53.692Z,76.01
2022-12-25T10:44:59.956Z,76.02
2022-12-25T10:46:01.660Z,76.08
2022-12-25T10:47:03.738Z,75.51
2022-12-25T10:48:07.780Z,75.68
2022-12-25T10:49:15.070Z,76.03
2022-12-25T10:50:22.937Z,76.24
2022-12-25T10:51:32.853Z,76.44
2022-12-25T10:52:34.554Z,76.81
2022-12-25T10:53:41.008Z,76.63
2022-12-25T10:54:43.721Z,76.20
2022-12-25T10:55:58.702Z,76.17
2022-12-25T10:57:13.193Z,76.45
2022-12-25T10:58:19.751Z,76.85
2022-12-25T10:59:21.478Z,76.08
2022-12-25T11:00:24.761Z,75.58
2022-12-25T11:01:27.774Z,75.90
2022-12-25T11:02:31.034Z,75.90
2022-12-25T11:03:54.152Z,76.11
2022-12-25T11:05:09.524Z,75.43
2022-12-25T11:06:24.604Z,75.33
2022-12-25T11:07:26.358Z,75.46
2022-12-25T11:08:29.023Z,75.63
2022-12-25T11:09:30.690Z,75.56
2022-12-25T11:10:43.854Z,75.62
2022-12-25T11:11:47.353Z,75.65
2022-12-25T11:12:48.980Z,75.56
2022-12-25T11:14:01.246Z,75.59
2022-12-25T11:15:32.045Z,75.70
2022-12-25T11:16:38.144Z,75.84
2022-12-25T11:17:39.916Z,75.90
2022-12-25T11:18:48.788Z,76.08
2022-12-25T11:19:57.711Z,75.95
2022-12-25T11:21:01.753Z,75.52
2022-12-25T11:22:05.193Z,75.20
2022-12-25T11:23:10.756Z,75.65
2022-12-25T11:24:19.550Z,75.45
2022-12-25T11:25:25.923Z,75.37
2022-12-25T11:26:28.601Z,75.46
2022-12-25T11:27:30.379Z,75.53
2022-12-25T11:28:34.205Z,75.75
2022-12-25T11:29:38.976Z,76.31
2022-12-25T11:30:40.591Z,76.10
2022-12-25T11:31:42.233Z,75.83
2022-12-25T11:32:46.136Z,76.26
2022-12-25T11:33:55.552Z,77.01
2022-12-25T11:34:57.799Z,77.56
2022-12-25T11:36:00.719Z,77.63
2022-12-25T11:37:02.780Z,77.50
2022-12-25T11:38:04.469Z,76.99
2022-12-25T11:39:24.222Z,77.01
2022-12-25T11:40:42.440Z,77.19
2022-12-25T11:41:44.043Z,77.17
2022-12-25T11:42:58.302Z,77.19
2022-12-25T11:44:06.179Z,77.23
2022-12-25T11:45:18.323Z,77.07
2022-12-25T11:46:41.811Z,77.06
2022-12-25T11:48:13.188Z,77.36
2022-12-25T11:49:16.256Z,77.97
2022-12-25T11:50:37.790Z,78.37
2022-12-25T11:51:39.880Z,78.44
2022-12-25T11:52:42.802Z,78.25
2022-12-25T11:53:52.584Z,78.46
2022-12-25T11:55:35.084Z,78.38
2022-12-25T11:56:36.744Z,78.48
2022-12-25T11:57:38.361Z,78.45
2022-12-25T11:58:42.256Z,78.43
2022-12-25T12:00:10.423Z,78.17
2022-12-25T12:01:30.667Z,78.21
2022-12-25T12:02:43.352Z,78.32
2022-12-25T12:03:45.465Z,78.42
2022-12-25T12:04:48.073Z,78.38
2022-12-25T12:06:00.348Z,78.27
2022-12-25T12:07:24.655Z,78.12
2022-12-25T12:08:26.351Z,78.21
2022-12-25T12:09:48.774Z,78.16
2022-12-25T12:11:17.787Z,78.07
2022-12-25T12:12:38.861Z,77.93
2022-12-25T12:13:51.933Z,77.91
2022-12-25T12:15:00.909Z,78.05
2022-12-25T12:16:03.973Z,77.86
2022-12-25T12:17:05.888Z,78.13
2022-12-25T12:18:28.610Z,78.24
2022-12-25T12:19:31.017Z,78.46
2022-12-25T12:20:34.594Z,78.38
2022-12-25T12:21:36.489Z,78.47
2022-12-25T12:22:38.239Z,78.37
2022-12-25T12:24:06.925Z,78.61
2022-12-25T12:25:08.774Z,78.65
2022-12-25T12:26:18.280Z,78.56
2022-12-25T12:27:29.906Z,78.60
2022-12-25T12:28:44.714Z,78.65
2022-12-25T12:29:49.798Z,78.20
2022-12-25T12:31:00.855Z,78.14
2022-12-25T12:32:03.373Z,78.11
2022-12-25T12:33:06.321Z,78.19
2022-12-25T12:34:14.474Z,78.36
2022-12-25T12:35:24.521Z,77.79
2022-12-25T12:36:35.472Z,77.42
2022-12-25T12:37:38.203Z,77.59
2022-12-25T12:38:41.190Z,77.70
2022-12-25T12:39:42.810Z,77.44
2022-12-25T12:40:45.010Z,77.72
2022-12-25T12:41:47.276Z,77.86
2022-12-25T12:42:50.684Z,78.03
2022-12-25T12:43:53.621Z,77.72
2022-12-25T12:44:56.087Z,77.85
2022-12-25T12:46:23.069Z,77.96
2022-12-25T12:47:37.807Z,78.19
2022-12-25T12:48:42.131Z,78.32
2022-12-25T12:49:43.713Z,78.45
2022-12-25T12:50:45.367Z,78.27
2022-12-25T12:51:47.062Z,78.04
2022-12-25T12:52:48.662Z,78.23
2022-12-25T12:53:50.277Z,78.26
2022-12-25T12:55:15.052Z,77.60
2022-12-25T12:56:18.335Z,77.56
2022-12-25T12:57:29.634Z,77.26
2022-12-25T12:58:35.647Z,77.32
2022-12-25T12:59:39.019Z,76.08
2022-12-25T13:00:46.781Z,75.84
2022-12-25T13:01:52.136Z,75.38
2022-12-25T13:03:19.333Z,75.42
2022-12-25T13:04:42.442Z,75.60
2022-12-25T13:05:48.057Z,75.82
2022-12-25T13:06:53.157Z,76.13
2022-12-25T13:08:20.907Z,75.75
2022-12-25T13:09:28.638Z,75.89
2022-12-25T13:10:37.955Z,75.46
2022-12-25T13:11:40.781Z,75.96
2022-12-25T13:12:42.402Z,76.19
2022-12-25T13:13:44.818Z,76.07
2022-12-25T13:14:46.930Z,75.85
2022-12-25T13:15:49.070Z,76.11
2022-12-25T13:16:52.853Z,76.15
2022-12-25T13:17:55.329Z,76.12
2022-12-25T13:18:56.985Z,76.54
2022-12-25T13:19:59.561Z,77.19
2022-12-25T13:21:02.258Z,77.45
2022-12-25T13:22:05.606Z,77.90
2022-12-25T13:23:28.291Z,78.55
2022-12-25T13:24:34.405Z,79.05
2022-12-25T13:25:35.992Z,79.56
2022-12-25T13:26:39.350Z,80.12
2022-12-25T13:27:40.969Z,80.48
2022-12-25T13:28:42.908Z,80.42
2022-12-25T13:29:44.522Z,80.26
2022-12-25T13:30:47.209Z,80.17
2022-12-25T13:31:48.873Z,80.27
2022-12-25T13:32:50.699Z,80.60
2022-12-25T13:34:06.178Z,80.91
2022-12-25T13:35:12.951Z,80.92
2022-12-25T13:36:14.553Z,81.01
2022-12-25T13:37:17.953Z,80.93
2022-12-25T13:38:19.613Z,80.79
2022-12-25T13:39:21.385Z,81.12
2022-12-25T13:40:27.291Z,81.16
2022-12-25T13:41:59.160Z,81.20
2022-12-25T13:43:01.027Z,81.76
2022-12-25T13:44:02.932Z,82.05
2022-12-25T13:45:22.921Z,82.27
2022-12-25T13:46:27.669Z,82.31
2022-12-25T13:47:34.140Z,82.33
2022-12-25T13:48:35.738Z,82.12
2022-12-25T13:49:37.473Z,82.26
2022-12-25T13:50:39.391Z,82.23
2022-12-25T13:51:41.627Z,82.36
2022-12-25T13:52:43.312Z,82.50
2022-12-25T13:53:44.989Z,82.59
2022-12-25T13:55:03.217Z,82.85
2022-12-25T13:56:05.072Z,83.19
2022-12-25T13:57:12.910Z,83.39
2022-12-25T13:58:39.308Z,83.63
2022-12-25T13:59:44.029Z,83.85
2022-12-25T14:00:47.542Z,83.82
2022-12-25T14:01:49.912Z,83.79
2022-12-25T14:02:51.866Z,83.95
2022-12-25T14:03:53.679Z,84.02
2022-12-25T14:04:55.449Z,84.03
2022-12-25T14:06:05.003Z,83.99
2022-12-25T14:07:10.420Z,84.09
2022-12-25T14:08:26.509Z,84.03
2022-12-25T14:09:28.258Z,83.75
2022-12-25T14:10:33.028Z,83.59
2022-12-25T14:11:35.026Z,83.69
2022-12-25T14:12:36.707Z,83.63
2022-12-25T14:13:40.411Z,83.66
2022-12-25T14:14:42.065Z,83.64
2022-12-25T14:15:43.922Z,83.78
2022-12-25T14:16:49.483Z,83.86
2022-12-25T14:17:51.288Z,84.05